createdAt,value
2023-04-20T00:00:14.566Z,2.9071
2023-04-20T00:01:22.441Z,2.6500
2023-04-20T00:02:30.791Z,2.9500
2023-04-20T00:03:38.749Z,2.6714
2023-04-20T00:04:46.613Z,2.8071
2023-04-20T00:05:54.763Z,2.9786
2023-04-20T00:07:02.794Z,2.8071
2023-04-20T00:08:10.757Z,2.9143
2023-04-20T00:09:19.190Z,2.7929
2023-04-20T00:10:27.066Z,2.9000
2023-04-20T00:11:35.116Z,2.7714
2023-04-20T00:12:43.284Z,2.9857
2023-04-20T00:13:51.097Z,2.7786
2023-04-20T00:14:59.241Z,2.9500
2023-04-20T00:16:07.244Z,3.2000
2023-04-20T00:17:15.440Z,3.0143
2023-04-20T00:18:23.453Z,3.0929
2023-04-20T00:19:31.580Z,3.0786
2023-04-20T00:20:39.635Z,3.1714
2023-04-20T00:21:47.797Z,3.1500
2023-04-20T00:22:55.905Z,3.3214
2023-04-20T00:24:03.817Z,3.1786
2023-04-20T00:25:11.875Z,3.3143
2023-04-20T00:26:19.905Z,3.0714
2023-04-20T00:27:27.877Z,3.3071
2023-04-20T00:28:36.129Z,3.3714
2023-04-20T00:29:44.004Z,3.6929
2023-04-20T00:30:52.272Z,3.7357
2023-04-20T00:32:00.292Z,3.3429
2023-04-20T00:33:08.272Z,3.3071
2023-04-20T00:34:16.445Z,3.3714
2023-04-20T00:35:24.449Z,3.3857
2023-04-20T00:36:32.522Z,3.3643
2023-04-20T00:37:40.611Z,3.2643
2023-04-20T00:38:48.821Z,3.3214
2023-04-20T00:39:56.785Z,3.2714
2023-04-20T00:41:04.760Z,3.3000
2023-04-20T00:42:12.835Z,3.1357
2023-04-20T00:43:20.920Z,3.3357
2023-04-20T00:44:28.841Z,3.2643
2023-04-20T00:45:37.060Z,3.5857
2023-04-20T00:46:45.520Z,3.4357
2023-04-20T00:47:53.403Z,3.2357
2023-04-20T00:49:01.300Z,3.5286
2023-04-20T00:50:09.353Z,3.4214
2023-04-20T00:51:17.428Z,3.3000
2023-04-20T00:52:25.455Z,3.2500
2023-04-20T00:53:33.514Z,3.3714
2023-04-20T00:54:41.584Z,3.4286
2023-04-20T00:55:49.604Z,3.4286
2023-04-20T00:56:57.890Z,3.3571
2023-04-20T00:58:05.819Z,3.6714
2023-04-20T00:59:13.865Z,3.4143
2023-04-20T01:00:21.907Z,3.4357
2023-04-20T01:01:29.989Z,3.6786
2023-04-20T01:02:38.175Z,3.3357
2023-04-20T01:03:46.322Z,3.4571
2023-04-20T01:04:54.038Z,3.4214
2023-04-20T01:06:02.436Z,3.5000
2023-04-20T01:07:10.323Z,3.2714
2023-04-20T01:08:18.288Z,3.5071
2023-04-20T01:09:26.461Z,3.6000
2023-04-20T01:10:34.511Z,3.8571
2023-04-20T01:11:42.558Z,3.7929
2023-04-20T01:12:50.614Z,3.8000
2023-04-20T01:13:58.742Z,3.7571
2023-04-20T01:15:06.883Z,3.9214
2023-04-20T01:16:14.775Z,3.9000
2023-04-20T01:17:22.999Z,3.9571
2023-04-20T01:18:30.843Z,3.8929
2023-04-20T01:19:38.952Z,3.5214
2023-04-20T01:20:47.110Z,3.9286
2023-04-20T01:21:55.169Z,3.8357
2023-04-20T01:23:03.215Z,4.2786
2023-04-20T01:24:11.172Z,4.0857
2023-04-20T01:25:19.256Z,3.8929
2023-04-20T01:26:27.507Z,4.0071
2023-04-20T01:27:35.431Z,3.9286
2023-04-20T01:28:43.577Z,4.0357
2023-04-20T01:29:51.621Z,4.0286
2023-04-20T01:30:59.576Z,4.2643
2023-04-20T01:32:07.760Z,4.2786
2023-04-20T01:33:15.765Z,3.9357
2023-04-20T01:34:23.915Z,4.2571
2023-04-20T01:35:32.084Z,4.1500
2023-04-20T01:36:40.054Z,4.2143
2023-04-20T01:37:48.052Z,4.0643
2023-04-20T01:38:56.194Z,4.0071
2023-04-20T01:40:04.232Z,4.3643
2023-04-20T01:41:12.303Z,4.3786
2023-04-20T01:42:20.292Z,4.2000
2023-04-20T01:43:28.525Z,4.4286
2023-04-20T01:44:36.470Z,4.3286
2023-04-20T01:45:44.416Z,4.4500
2023-04-20T01:46:52.761Z,4.4571
2023-04-20T01:48:00.780Z,4.3000
2023-04-20T01:49:08.738Z,4.3643
2023-04-20T01:50:16.780Z,4.4929
2023-04-20T01:51:24.701Z,4.5143
2023-04-20T01:52:32.981Z,4.5643
2023-04-20T01:53:40.945Z,4.4643
2023-04-20T01:54:49.021Z,4.8000
2023-04-20T01:55:57.289Z,4.6286
2023-04-20T01:57:05.160Z,4.4643
2023-04-20T01:58:13.277Z,4.5500
2023-04-20T01:59:21.165Z,4.7500
2023-04-20T02:00:29.349Z,4.9500
2023-04-20T02:01:37.300Z,4.9643
2023-04-20T02:02:45.474Z,5.0000
2023-04-20T02:03:53.664Z,4.9643
2023-04-20T02:05:01.670Z,5.2214
2023-04-20T02:06:09.715Z,5.0500
2023-04-20T02:07:17.748Z,5.0857
2023-04-20T02:08:25.802Z,4.8500
2023-04-20T02:09:33.914Z,4.9000
2023-04-20T02:10:41.805Z,4.9000
2023-04-20T02:11:50.005Z,4.8571
2023-04-20T02:12:57.943Z,4.9214
2023-04-20T02:14:06.226Z,4.6000
2023-04-20T02:15:14.286Z,4.7643
2023-04-20T02:16:22.238Z,5.1357
2023-04-20T02:17:30.344Z,5.3643
2023-04-20T02:18:38.374Z,5.2929
2023-04-20T02:19:46.404Z,4.8643
2023-04-20T02:20:54.572Z,5.2000
2023-04-20T02:22:02.698Z,5.0643
2023-04-20T02:23:10.642Z,5.2643
2023-04-20T02:24:18.821Z,4.5357
2023-04-20T02:25:27.001Z,4.7786
2023-04-20T02:26:34.870Z,5.0071
2023-04-20T02:27:42.922Z,5.1000
2023-04-20T02:28:50.942Z,5.1786
2023-04-20T02:29:58.979Z,4.8500
2023-04-20T02:31:07.100Z,5.1071
2023-04-20T02:32:15.184Z,5.0143
2023-04-20T02:33:23.204Z,5.2357
2023-04-20T02:34:31.260Z,5.2500
2023-04-20T02:35:39.302Z,5.2786
2023-04-20T02:36:47.306Z,4.9857
2023-04-20T02:37:55.438Z,5.3071
2023-04-20T02:39:03.368Z,5.3000
2023-04-20T02:40:11.552Z,5.0857
2023-04-20T02:41:19.635Z,5.0214
2023-04-20T02:42:27.705Z,4.9500
2023-04-20T02:43:35.744Z,5.0929
2023-04-20T02:44:43.835Z,5.0571
2023-04-20T02:45:51.922Z,5.3214
2023-04-20T02:47:00.037Z,5.1500
2023-04-20T02:48:08.142Z,5.0714
2023-04-20T02:49:16.588Z,4.8429
2023-04-20T02:50:24.100Z,5.0929
2023-04-20T02:51:32.305Z,5.0429
2023-04-20T02:52:40.391Z,4.9357
2023-04-20T02:53:48.578Z,4.7357
2023-04-20T02:54:56.484Z,5.3000
2023-04-20T02:56:04.559Z,4.9929
2023-04-20T02:57:12.638Z,4.9929
2023-04-20T02:58:20.684Z,5.0071
2023-04-20T02:59:28.780Z,5.3071
2023-04-20T03:00:36.801Z,4.8714
2023-04-20T03:01:45.000Z,5.3786
2023-04-20T03:02:53.185Z,5.1214
2023-04-20T03:04:01.245Z,5.2429
2023-04-20T03:05:09.074Z,5.0929
2023-04-20T03:06:17.137Z,4.9286
2023-04-20T03:07:25.057Z,5.1929
2023-04-20T03:08:33.227Z,4.9571
2023-04-20T03:09:41.302Z,5.2071
2023-04-20T03:10:49.334Z,5.3071
2023-04-20T03:11:57.647Z,5.2000
2023-04-20T03:13:05.476Z,4.9357
2023-04-20T03:14:13.580Z,4.8000
2023-04-20T03:15:21.661Z,4.7214
2023-04-20T03:16:29.660Z,5.0000
2023-04-20T03:17:37.829Z,5.2143
2023-04-20T03:18:45.669Z,5.0071
2023-04-20T03:19:53.871Z,5.2286
2023-04-20T03:21:02.061Z,5.2357
2023-04-20T03:22:09.988Z,5.1571
2023-04-20T03:23:18.098Z,5.3214
2023-04-20T03:24:26.132Z,5.1000
2023-04-20T03:25:34.197Z,5.3643
2023-04-20T03:26:42.330Z,5.1357
2023-04-20T03:27:50.319Z,5.4143
2023-04-20T03:28:58.438Z,5.3857
2023-04-20T03:30:06.583Z,5.0857
2023-04-20T03:31:14.389Z,5.4786
2023-04-20T03:32:22.708Z,5.5571
2023-04-20T03:33:30.604Z,5.3500
2023-04-20T03:34:38.748Z,5.4929
2023-04-20T03:35:46.750Z,5.2500
2023-04-20T03:36:54.833Z,5.3786
2023-04-20T03:38:02.940Z,5.4714
2023-04-20T03:39:10.928Z,5.1000
2023-04-20T03:40:19.078Z,4.9786
2023-04-20T03:41:27.120Z,5.0357
2023-04-20T03:42:35.138Z,4.9643
2023-04-20T03:43:43.234Z,5.2143
2023-04-20T03:44:51.301Z,5.5500
2023-04-20T03:45:59.383Z,5.8643
2023-04-20T03:47:07.499Z,6.0000
2023-04-20T03:48:15.481Z,5.8500
2023-04-20T03:49:23.592Z,5.9214
2023-04-20T03:50:31.496Z,5.9214
2023-04-20T03:51:39.746Z,5.8786
2023-04-20T03:52:47.733Z,6.1000
2023-04-20T03:53:55.624Z,5.8571
2023-04-20T03:55:03.907Z,5.5071
2023-04-20T03:56:11.785Z,5.6786
2023-04-20T03:57:19.937Z,5.7714
2023-04-20T03:58:28.041Z,5.8857
2023-04-20T03:59:36.076Z,6.0071
2023-04-20T04:00:44.165Z,6.3214
2023-04-20T04:01:52.238Z,5.9571
2023-04-20T04:03:00.412Z,5.7714
2023-04-20T04:04:08.656Z,6.1357
2023-04-20T04:05:16.309Z,6.1143
2023-04-20T04:06:24.436Z,5.6643
2023-04-20T04:07:32.477Z,5.6357
2023-04-20T04:08:40.510Z,5.7143
2023-04-20T04:09:48.559Z,5.2071
2023-04-20T04:10:56.658Z,5.4500
2023-04-20T04:12:04.719Z,5.8429
2023-04-20T04:13:12.780Z,5.7929
2023-04-20T04:14:20.810Z,5.7143
2023-04-20T04:15:29.013Z,5.3786
2023-04-20T04:16:36.904Z,5.4357
2023-04-20T04:17:45.095Z,5.6286
2023-04-20T04:18:53.012Z,5.7286
2023-04-20T04:20:01.150Z,5.5571
2023-04-20T04:21:09.175Z,5.5786
2023-04-20T04:22:17.335Z,5.4357
2023-04-20T04:23:25.386Z,5.1786
2023-04-20T04:24:33.472Z,5.5143
2023-04-20T04:25:41.592Z,5.3571
2023-04-20T04:26:49.511Z,5.5357
2023-04-20T04:27:57.567Z,5.7714
2023-04-20T04:29:05.696Z,5.7143
2023-04-20T04:30:13.813Z,5.6571
2023-04-20T04:31:21.841Z,5.7214
2023-04-20T04:32:29.862Z,5.6786
2023-04-20T04:33:37.986Z,5.4571
2023-04-20T04:34:45.993Z,5.7857
2023-04-20T04:35:54.063Z,5.6857
2023-04-20T04:37:02.085Z,6.2571
2023-04-20T04:38:10.148Z,5.6286
2023-04-20T04:39:18.327Z,5.3571
2023-04-20T04:40:26.327Z,5.6857
2023-04-20T04:41:34.416Z,5.9000
2023-04-20T04:42:42.544Z,6.4143
2023-04-20T04:43:50.478Z,6.5071
2023-04-20T04:44:58.660Z,5.9286
2023-04-20T04:46:06.684Z,5.6429
2023-04-20T04:47:14.699Z,5.7143
2023-04-20T04:48:22.729Z,5.8071
2023-04-20T04:49:30.793Z,5.8000
2023-04-20T04:50:38.897Z,5.6929
2023-04-20T04:51:47.078Z,5.9857
2023-04-20T04:52:55.056Z,6.5500
2023-04-20T04:54:02.997Z,6.1214
2023-04-20T04:55:11.142Z,5.7214
2023-04-20T04:56:19.266Z,5.7714
2023-04-20T04:57:27.301Z,5.7000
2023-04-20T04:58:35.299Z,5.9286
2023-04-20T04:59:43.311Z,5.9786
2023-04-20T05:00:51.438Z,6.1714
2023-04-20T05:01:59.688Z,5.8857
2023-04-20T05:03:07.781Z,6.2786
2023-04-20T05:04:15.858Z,5.9143
2023-04-20T05:05:23.661Z,6.1714
2023-04-20T05:06:31.731Z,6.1357
2023-04-20T05:07:39.957Z,5.9786
2023-04-20T05:08:47.867Z,5.9214
2023-04-20T05:09:55.969Z,5.9571
2023-04-20T05:11:04.116Z,5.9571
2023-04-20T05:12:12.069Z,5.8643
2023-04-20T05:13:20.144Z,5.8000
2023-04-20T05:14:28.198Z,5.5714
2023-04-20T05:15:36.357Z,5.5071
2023-04-20T05:16:44.319Z,5.5714
2023-04-20T05:17:52.402Z,5.7143
2023-04-20T05:19:00.532Z,5.4929
2023-04-20T05:20:08.442Z,5.3429
2023-04-20T05:21:16.565Z,5.6214
2023-04-20T05:22:24.657Z,5.5429
2023-04-20T05:23:32.675Z,5.6071
2023-04-20T05:24:40.769Z,5.3286
2023-04-20T05:25:48.911Z,5.4429
2023-04-20T05:26:56.875Z,5.2143
2023-04-20T05:28:04.926Z,5.5786
2023-04-20T05:29:13.085Z,5.6429
2023-04-20T05:30:22.219Z,5.2643
2023-04-20T05:31:29.087Z,5.2500
2023-04-20T05:32:37.223Z,5.2286
2023-04-20T05:33:45.297Z,5.0643
2023-04-20T05:34:53.314Z,5.0429
2023-04-20T05:36:01.415Z,5.4786
2023-04-20T05:37:09.369Z,5.4643
2023-04-20T05:38:17.656Z,5.5071
2023-04-20T05:39:25.555Z,5.5286
2023-04-20T05:40:33.629Z,5.5429
2023-04-20T05:41:41.845Z,5.8786
2023-04-20T05:42:49.700Z,5.8071
2023-04-20T05:43:57.833Z,5.7143
2023-04-20T05:45:05.970Z,5.9000
2023-04-20T05:46:13.953Z,5.8286
2023-04-20T05:47:22.147Z,5.9357
2023-04-20T05:48:30.249Z,5.9571
2023-04-20T05:49:38.129Z,5.7571
2023-04-20T05:50:46.232Z,5.8857
2023-04-20T05:51:54.300Z,6.0786
2023-04-20T05:53:02.480Z,6.1357
2023-04-20T05:54:10.404Z,6.2714
2023-04-20T05:55:19.932Z,6.5143
2023-04-20T05:56:31.406Z,6.8133
2023-04-20T05:57:39.391Z,6.7286
2023-04-20T05:58:47.684Z,6.7643
2023-04-20T05:59:55.619Z,6.6500
2023-04-20T06:01:03.719Z,6.7071
2023-04-20T06:02:11.769Z,6.9429
2023-04-20T06:03:19.886Z,6.8857
2023-04-20T06:04:27.964Z,6.9929
2023-04-20T06:05:35.990Z,6.7714
2023-04-20T06:06:43.973Z,6.6786
2023-04-20T06:07:52.148Z,6.2929
2023-04-20T06:09:00.277Z,6.3286
2023-04-20T06:10:08.253Z,6.8571
2023-04-20T06:11:16.221Z,7.3000
2023-04-20T06:12:26.655Z,7.0500
2023-04-20T06:13:32.348Z,6.9571
2023-04-20T06:14:40.473Z,6.8500
2023-04-20T06:15:48.537Z,6.7500
2023-04-20T06:16:56.540Z,6.7929
2023-04-20T06:18:04.666Z,6.9857
2023-04-20T06:19:12.680Z,7.0429
2023-04-20T06:20:20.910Z,6.6714
2023-04-20T06:21:28.798Z,6.4929
2023-04-20T06:22:36.857Z,6.6857
2023-04-20T06:23:44.904Z,6.8643
2023-04-20T06:24:52.984Z,6.6786
2023-04-20T06:26:01.097Z,6.7643
2023-04-20T06:27:09.141Z,6.3214
2023-04-20T06:28:17.219Z,6.1071
2023-04-20T06:29:25.340Z,6.2500
2023-04-20T06:30:33.329Z,6.0714
2023-04-20T06:31:41.527Z,5.8429
2023-04-20T06:32:49.538Z,5.9929
2023-04-20T06:33:57.556Z,6.1929
2023-04-20T06:35:05.525Z,6.1143
2023-04-20T06:36:13.785Z,5.7786
2023-04-20T06:37:21.756Z,5.5857
2023-04-20T06:38:29.816Z,5.6357
2023-04-20T06:39:37.980Z,5.6643
2023-04-20T06:40:45.837Z,5.4643
2023-04-20T06:41:54.027Z,5.4000
2023-04-20T06:43:02.142Z,5.2357
2023-04-20T06:44:10.155Z,5.3571
2023-04-20T06:45:18.191Z,5.0429
2023-04-20T06:46:26.324Z,5.3071
2023-04-20T06:47:34.373Z,5.8143
2023-04-20T06:48:42.420Z,5.6500
2023-04-20T06:49:50.470Z,5.5500
2023-04-20T06:50:58.636Z,5.1571
2023-04-20T06:52:06.630Z,5.0643
2023-04-20T06:53:14.646Z,4.4786
2023-04-20T06:54:22.835Z,4.8000
2023-04-20T06:55:30.808Z,4.8429
2023-04-20T06:56:38.929Z,5.0357
2023-04-20T06:57:46.978Z,5.3571
2023-04-20T06:58:55.028Z,4.6786
2023-04-20T07:00:03.189Z,4.2357
2023-04-20T07:01:11.162Z,4.2714
2023-04-20T07:02:19.335Z,4.0929
2023-04-20T07:03:27.619Z,4.4000
2023-04-20T07:04:35.382Z,4.5357
2023-04-20T07:05:43.475Z,4.2000
2023-04-20T07:06:53.904Z,4.2214
2023-04-20T07:08:04.528Z,4.1133
2023-04-20T07:09:12.473Z,4.1071
2023-04-20T07:10:20.556Z,4.1643
2023-04-20T07:11:28.833Z,3.8714
2023-04-20T07:12:36.667Z,4.0071
2023-04-20T07:13:44.861Z,3.9786
2023-04-20T07:14:52.807Z,3.7214
2023-04-20T07:16:01.057Z,3.6143
2023-04-20T07:17:09.008Z,3.6143
2023-04-20T07:18:17.018Z,3.8214
2023-04-20T07:19:25.151Z,3.7643
2023-04-20T07:20:33.162Z,3.6214
2023-04-20T07:21:41.200Z,3.4214
2023-04-20T07:22:49.420Z,3.5357
2023-04-20T07:23:57.321Z,3.6500
2023-04-20T07:25:05.426Z,3.7214
2023-04-20T07:26:13.464Z,3.5643
2023-04-20T07:27:21.522Z,3.5857
2023-04-20T07:28:29.626Z,3.7357
2023-04-20T07:29:37.785Z,3.7000
2023-04-20T07:30:45.826Z,3.9143
2023-04-20T07:31:53.978Z,3.8857
2023-04-20T07:33:01.888Z,3.7071
2023-04-20T07:34:09.939Z,4.1714
2023-04-20T07:35:17.974Z,3.9286
2023-04-20T07:36:26.042Z,4.1500
2023-04-20T07:37:34.143Z,4.1357
2023-04-20T07:38:42.131Z,3.9786
2023-04-20T07:39:50.250Z,3.8643
2023-04-20T07:40:58.323Z,4.3357
2023-04-20T07:42:06.520Z,4.2214
2023-04-20T07:43:14.489Z,4.4429
2023-04-20T07:44:22.514Z,4.3929
2023-04-20T07:45:30.652Z,4.1786
2023-04-20T07:46:38.604Z,4.1071
2023-04-20T07:47:46.749Z,4.2643
2023-04-20T07:48:54.754Z,4.4071
2023-04-20T07:50:02.819Z,4.4500
2023-04-20T07:51:11.077Z,4.6429
2023-04-20T07:52:18.940Z,5.1571
2023-04-20T07:53:27.101Z,4.2357
2023-04-20T07:54:35.070Z,4.0214
2023-04-20T07:55:43.202Z,4.1071
2023-04-20T07:56:51.179Z,3.8929
2023-04-20T07:57:59.240Z,3.9857
2023-04-20T07:59:07.309Z,4.0714
2023-04-20T08:00:15.484Z,4.0571
2023-04-20T08:01:23.628Z,4.1000
2023-04-20T08:02:31.637Z,3.8786
2023-04-20T08:03:39.793Z,3.9714
2023-04-20T08:04:47.696Z,3.7500
2023-04-20T08:05:55.828Z,3.7500
2023-04-20T08:07:04.109Z,3.5571
2023-04-20T08:08:11.850Z,3.3429
2023-04-20T08:09:20.013Z,3.2929
2023-04-20T08:10:27.928Z,3.2000
2023-04-20T08:11:36.030Z,3.1786
2023-04-20T08:12:44.234Z,3.1071
2023-04-20T08:13:52.142Z,3.3571
2023-04-20T08:15:00.297Z,3.0714
2023-04-20T08:16:08.212Z,3.0286
2023-04-20T08:17:16.400Z,3.3429
2023-04-20T08:18:24.460Z,3.2000
2023-04-20T08:19:32.606Z,3.3429
2023-04-20T08:20:40.551Z,3.2429
2023-04-20T08:21:48.631Z,3.1214
2023-04-20T08:22:56.695Z,3.0071
2023-04-20T08:24:04.879Z,3.2643
2023-04-20T08:25:12.796Z,3.8214
2023-04-20T08:26:20.856Z,3.6000
2023-04-20T08:27:29.118Z,3.3357
2023-04-20T08:28:37.170Z,3.0000
2023-04-20T08:29:45.086Z,3.0429
2023-04-20T08:30:53.200Z,2.7286
2023-04-20T08:32:01.285Z,2.6714
2023-04-20T08:33:09.320Z,2.7286
2023-04-20T08:34:17.328Z,2.9429
2023-04-20T08:35:25.490Z,2.9500
2023-04-20T08:36:33.466Z,2.9143
2023-04-20T08:37:41.489Z,3.0500
2023-04-20T08:38:49.603Z,2.9571
2023-04-20T08:39:57.624Z,3.2571
2023-04-20T08:41:05.719Z,3.3429
2023-04-20T08:42:13.650Z,4.0643
2023-04-20T08:43:22.190Z,3.3643
2023-04-20T08:44:29.888Z,3.3143
2023-04-20T08:45:37.935Z,3.2857
2023-04-20T08:46:46.054Z,3.1714
2023-04-20T08:47:54.246Z,3.3214
2023-04-20T08:49:02.103Z,3.2500
2023-04-20T08:50:10.274Z,3.3000
2023-04-20T08:51:18.239Z,3.3857
2023-04-20T08:52:26.364Z,3.3929
2023-04-20T08:53:34.297Z,3.4643
2023-04-20T08:54:55.289Z,3.2357
2023-04-20T08:55:55.334Z,3.4600
2023-04-20T08:57:03.341Z,3.5143
2023-04-20T08:58:11.741Z,3.8429
2023-04-20T08:59:19.514Z,3.5714
2023-04-20T09:00:27.591Z,3.4643
2023-04-20T09:01:36.306Z,3.4500
2023-04-20T09:02:43.835Z,3.5000
2023-04-20T09:03:51.919Z,3.3500
2023-04-20T09:04:59.892Z,3.3286
2023-04-20T09:06:07.885Z,3.2143
2023-04-20T09:07:16.126Z,3.5571
2023-04-20T09:08:23.929Z,3.1286
2023-04-20T09:09:32.073Z,3.5857
2023-04-20T09:10:40.176Z,3.3714
2023-04-20T09:11:48.193Z,3.2143
2023-04-20T09:12:56.395Z,3.3571
2023-04-20T09:14:04.233Z,3.1500
2023-04-20T09:15:12.391Z,3.5071
2023-04-20T09:16:20.560Z,4.0071
2023-04-20T09:17:28.618Z,3.9071
2023-04-20T09:18:36.593Z,3.9000
2023-04-20T09:19:44.670Z,3.6929
2023-04-20T09:20:52.697Z,3.6786
2023-04-20T09:22:00.756Z,3.7357
2023-04-20T09:23:08.815Z,3.8286
2023-04-20T09:24:17.233Z,3.5714
2023-04-20T09:25:25.614Z,3.7714
2023-04-20T09:26:33.027Z,3.7786
2023-04-20T09:27:41.184Z,4.0143
2023-04-20T09:28:49.142Z,3.7286
2023-04-20T09:29:57.253Z,3.7857
2023-04-20T09:31:05.302Z,4.2500
2023-04-20T09:32:13.420Z,4.1143
2023-04-20T09:33:21.402Z,3.8714
2023-04-20T09:34:29.561Z,3.8286
2023-04-20T09:35:37.638Z,3.5857
2023-04-20T09:36:45.603Z,3.5286
2023-04-20T09:37:53.627Z,3.9214
2023-04-20T09:39:01.808Z,3.7643
2023-04-20T09:40:09.862Z,3.6357
2023-04-20T09:41:17.878Z,3.7643
2023-04-20T09:42:25.943Z,3.5929
2023-04-20T09:43:33.951Z,3.1929
2023-04-20T09:44:41.998Z,3.6714
2023-04-20T09:45:50.040Z,3.6071
2023-04-20T09:46:58.274Z,3.4143
2023-04-20T09:48:06.275Z,3.3500
2023-04-20T09:49:14.246Z,3.1929
2023-04-20T09:50:28.916Z,3.3357
2023-04-20T09:51:35.222Z,3.2667
2023-04-20T09:52:43.325Z,3.2714
2023-04-20T09:53:53.060Z,3.3714
2023-04-20T09:54:59.486Z,3.1286
2023-04-20T09:56:07.580Z,2.9286
2023-04-20T09:57:15.520Z,3.1643
2023-04-20T09:58:23.825Z,3.1571
2023-04-20T09:59:31.660Z,2.9714
2023-04-20T10:00:39.653Z,3.0214
2023-04-20T10:01:47.916Z,2.9429
2023-04-20T10:02:55.923Z,2.9286
2023-04-20T10:04:04.288Z,2.9786
2023-04-20T10:05:12.019Z,2.8857
2023-04-20T10:06:20.054Z,2.9571
2023-04-20T10:07:28.064Z,3.0786
2023-04-20T10:08:36.224Z,3.0143
2023-04-20T10:09:44.213Z,3.0500
2023-04-20T10:10:52.346Z,2.9714
2023-04-20T10:12:00.237Z,2.8500
2023-04-20T10:13:08.486Z,3.0500
2023-04-20T10:14:16.692Z,3.3143
2023-04-20T10:15:24.558Z,3.0643
2023-04-20T10:16:32.696Z,2.9643
2023-04-20T10:17:40.662Z,3.1357
2023-04-20T10:18:48.766Z,3.2714
2023-04-20T10:19:56.920Z,3.5214
2023-04-20T10:21:04.882Z,3.5214
2023-04-20T10:22:12.998Z,3.2714
2023-04-20T10:23:20.865Z,3.1643
2023-04-20T10:24:28.983Z,3.1143
2023-04-20T10:25:37.043Z,3.3357
2023-04-20T10:26:45.161Z,3.3286
2023-04-20T10:27:53.170Z,3.1643
2023-04-20T10:29:01.147Z,3.2571
2023-04-20T10:30:09.294Z,3.4286
2023-04-20T10:31:17.509Z,3.1714
2023-04-20T10:32:25.490Z,3.1357
2023-04-20T10:33:33.608Z,3.1071
2023-04-20T10:34:41.613Z,3.1143
2023-04-20T10:35:49.617Z,3.1143
2023-04-20T10:36:57.679Z,3.4786
2023-04-20T10:38:05.849Z,3.4357
2023-04-20T10:39:13.787Z,3.3857
2023-04-20T10:40:21.832Z,3.2786
2023-04-20T10:41:29.810Z,3.2929
2023-04-20T10:42:37.956Z,3.2500
2023-04-20T10:43:46.112Z,3.6143
2023-04-20T10:44:54.094Z,3.6071
2023-04-20T10:46:02.155Z,3.6143
2023-04-20T10:47:10.215Z,3.7000
2023-04-20T10:48:18.512Z,3.9714
2023-04-20T10:49:26.471Z,3.9500
2023-04-20T10:50:34.405Z,4.1071
2023-04-20T10:51:42.435Z,3.9571
2023-04-20T10:52:50.701Z,3.6429
2023-04-20T10:53:58.564Z,3.8643
2023-04-20T10:55:06.596Z,3.9643
2023-04-20T10:56:14.727Z,3.9000
2023-04-20T10:57:22.765Z,3.9643
2023-04-20T10:58:30.857Z,3.8714
2023-04-20T10:59:38.872Z,4.0929
2023-04-20T11:00:46.885Z,4.0857
2023-04-20T11:01:55.129Z,4.1071
2023-04-20T11:03:03.128Z,3.6071
2023-04-20T11:04:11.052Z,3.7357
2023-04-20T11:05:19.306Z,3.8286
2023-04-20T11:06:27.360Z,3.8643
2023-04-20T11:07:35.489Z,3.6857
2023-04-20T11:08:43.446Z,3.7357
2023-04-20T11:09:51.539Z,3.7000
2023-04-20T11:10:59.627Z,3.6929
2023-04-20T11:12:07.870Z,3.8357
2023-04-20T11:13:15.737Z,3.6571
2023-04-20T11:14:23.666Z,3.5286
2023-04-20T11:15:31.746Z,3.4500
2023-04-20T11:16:50.817Z,3.8786
2023-04-20T11:17:52.874Z,3.7600
2023-04-20T11:19:00.851Z,3.5286
2023-04-20T11:20:09.041Z,3.5929
2023-04-20T11:21:16.927Z,3.5143
2023-04-20T11:22:25.099Z,3.5643
2023-04-20T11:23:33.152Z,3.4429
2023-04-20T11:24:41.245Z,3.3786
2023-04-20T11:25:49.256Z,3.5929
2023-04-20T11:26:57.354Z,3.4714
2023-04-20T11:28:05.446Z,3.5214
2023-04-20T11:29:13.537Z,3.2214
2023-04-20T11:30:21.432Z,3.3143
2023-04-20T11:31:29.734Z,3.6000
2023-04-20T11:32:37.819Z,3.2071
2023-04-20T11:33:45.788Z,3.3071
2023-04-20T11:35:03.379Z,3.6071
2023-04-20T11:36:06.630Z,3.4533
2023-04-20T11:37:14.820Z,3.3643
2023-04-20T11:38:22.861Z,3.5214
2023-04-20T11:39:30.894Z,3.5214
2023-04-20T11:40:39.066Z,3.3286
2023-04-20T11:41:47.101Z,3.5714
2023-04-20T11:42:54.983Z,3.3857
2023-04-20T11:44:03.112Z,3.1357
2023-04-20T11:45:11.398Z,3.1143
2023-04-20T11:46:19.429Z,3.2000
2023-04-20T11:47:27.477Z,3.0071
2023-04-20T11:48:35.380Z,3.0286
2023-04-20T11:49:43.444Z,3.0357
2023-04-20T11:50:51.453Z,3.2571
2023-04-20T11:51:59.638Z,3.0929
2023-04-20T11:53:07.573Z,3.0786
2023-04-20T11:54:15.778Z,3.1071
2023-04-20T11:55:23.927Z,3.1714
2023-04-20T11:56:31.826Z,2.9857
2023-04-20T11:57:39.935Z,2.8929
2023-04-20T11:58:48.036Z,2.9286
2023-04-20T11:59:56.006Z,2.8643
2023-04-20T12:01:04.100Z,2.9643
2023-04-20T12:02:12.215Z,2.9571
2023-04-20T12:03:20.374Z,3.1071
2023-04-20T12:04:28.584Z,2.9286
2023-04-20T12:05:36.469Z,3.0143
2023-04-20T12:06:44.496Z,2.8643
2023-04-20T12:07:52.555Z,2.9571
2023-04-20T12:09:00.592Z,2.8429
2023-04-20T12:10:08.679Z,2.8357
2023-04-20T12:11:16.641Z,2.8357
2023-04-20T12:12:24.732Z,2.8857
2023-04-20T12:13:32.950Z,2.5714
2023-04-20T12:14:40.865Z,2.7643
2023-04-20T12:15:48.996Z,2.9071
2023-04-20T12:16:58.554Z,2.8429
2023-04-20T12:18:05.088Z,2.8643
2023-04-20T12:19:13.083Z,2.7714
2023-04-20T12:20:21.181Z,2.7286
2023-04-20T12:21:29.355Z,2.7714
2023-04-20T12:22:37.221Z,2.6214
2023-04-20T12:23:45.377Z,2.5857
2023-04-20T12:24:53.495Z,2.8143
2023-04-20T12:26:01.548Z,2.9714
2023-04-20T12:27:09.530Z,2.7714
2023-04-20T12:28:17.690Z,2.8429
2023-04-20T12:29:25.663Z,3.0143
2023-04-20T12:30:33.717Z,2.8786
2023-04-20T12:31:41.860Z,2.7643
2023-04-20T12:32:50.124Z,2.8214
2023-04-20T12:33:57.913Z,2.7786
2023-04-20T12:35:05.985Z,2.6000
2023-04-20T12:36:14.160Z,2.4786
2023-04-20T12:37:22.119Z,2.6643
2023-04-20T12:38:30.175Z,2.8071
2023-04-20T12:39:38.195Z,2.8071
2023-04-20T12:40:46.290Z,2.5929
2023-04-20T12:41:54.498Z,2.5929
2023-04-20T12:43:02.455Z,2.6214
2023-04-20T12:44:11.435Z,2.6143
2023-04-20T12:45:18.532Z,2.6500
2023-04-20T12:46:26.600Z,2.6786
2023-04-20T12:47:34.795Z,2.6643
2023-04-20T12:48:42.735Z,2.6071
2023-04-20T12:49:50.876Z,2.9357
2023-04-20T12:50:58.936Z,2.8143
2023-04-20T12:52:08.145Z,2.5643
2023-04-20T12:53:14.981Z,2.8500
2023-04-20T12:54:22.987Z,2.8500
2023-04-20T12:55:31.089Z,2.5857
2023-04-20T12:56:39.179Z,2.6429
2023-04-20T12:57:47.193Z,2.5929
2023-04-20T12:58:55.372Z,2.7214
2023-04-20T13:00:03.357Z,2.7571
2023-04-20T13:01:11.611Z,2.7214
2023-04-20T13:02:19.630Z,2.5714
2023-04-20T13:03:27.784Z,2.6357
2023-04-20T13:04:35.740Z,2.8071
2023-04-20T13:05:43.548Z,2.8214
2023-04-20T13:06:51.710Z,2.8500
2023-04-20T13:07:59.754Z,2.5500
2023-04-20T13:09:07.878Z,2.6143
2023-04-20T13:10:15.917Z,2.7929
2023-04-20T13:11:25.988Z,2.5500
2023-04-20T13:12:36.887Z,2.5733
2023-04-20T13:13:44.974Z,2.7071
2023-04-20T13:14:53.007Z,2.6786
2023-04-20T13:16:01.178Z,2.8143
2023-04-20T13:17:09.251Z,2.5286
2023-04-20T13:18:17.346Z,2.6286
2023-04-20T13:19:25.283Z,2.6786
2023-04-20T13:20:33.331Z,2.8857
2023-04-20T13:21:41.581Z,2.5571
2023-04-20T13:22:57.779Z,2.7214
2023-04-20T13:24:02.351Z,2.6400
2023-04-20T13:25:10.432Z,2.8214
2023-04-20T13:26:18.567Z,2.8286
2023-04-20T13:27:26.733Z,2.6857
2023-04-20T13:28:34.610Z,2.9143
2023-04-20T13:29:42.800Z,3.1000
2023-04-20T13:30:50.756Z,2.8571
2023-04-20T13:31:58.740Z,2.7571
2023-04-20T13:33:07.028Z,2.7786
2023-04-20T13:34:14.921Z,2.7429
2023-04-20T13:35:22.992Z,2.8143
2023-04-20T13:36:31.067Z,2.6643
2023-04-20T13:37:39.409Z,3.0214
2023-04-20T13:38:47.211Z,2.7000
2023-04-20T13:39:55.217Z,2.6571
2023-04-20T13:41:03.386Z,2.6786
2023-04-20T13:42:11.352Z,2.6571
2023-04-20T13:43:21.462Z,2.8214
2023-04-20T13:44:27.694Z,2.6571
2023-04-20T13:45:35.607Z,2.8071
2023-04-20T13:46:43.603Z,2.6643
2023-04-20T13:47:51.788Z,2.8857
2023-04-20T13:48:59.741Z,2.6500
2023-04-20T13:50:07.998Z,2.9357
2023-04-20T13:51:15.863Z,3.0786
2023-04-20T13:52:23.944Z,3.0643
2023-04-20T13:53:31.973Z,3.1071
2023-04-20T13:54:40.088Z,3.0714
2023-04-20T13:55:48.197Z,2.8357
2023-04-20T13:56:56.181Z,3.2786
2023-04-20T13:58:04.330Z,3.1571
2023-04-20T13:59:12.337Z,3.0500
2023-04-20T14:00:20.330Z,3.1786
2023-04-20T14:01:28.483Z,3.1071
2023-04-20T14:02:36.684Z,3.1857
2023-04-20T14:03:44.713Z,3.2357
2023-04-20T14:04:52.726Z,3.1714
2023-04-20T14:06:00.644Z,3.1786
2023-04-20T14:07:08.781Z,3.2714
2023-04-20T14:08:16.792Z,3.3786
2023-04-20T14:09:24.835Z,3.3357